Time;durP1;ratioP1;P1;durP2;ratioP2;P2;SDS_P1;SDS_P2;PMS_P1;PMS_P2;Temp;Humidity;BMP_temperature;BMP_pressure;BME280_temperature;BME280_humidity;BME280_pressure;Samples;Min_cycle;Max_cycle;Signal;HPM_P1;HPM_P2
2022/12/04 00:01:26;;;;;;;33.27;15.83;;;1.90;99.90;;;;;;5058447;28;20209;-49
2022/12/04 00:03:53;;;;;;;31.73;17.23;;;1.90;99.90;;;;;;5076094;28;20203;-48
2022/12/04 00:06:21;;;;;;;29.90;15.33;;;1.90;99.90;;;;;;5076226;28;20662;-49
2022/12/04 00:08:48;;;;;;;26.07;14.60;;;1.90;99.90;;;;;;5058192;28;20207;-49
2022/12/04 00:11:17;;;;;;;32.67;15.30;;;1.90;99.90;;;;;;5076265;28;20651;-50
2022/12/04 00:13:43;;;;;;;30.17;16.10;;;1.90;99.90;;;;;;5075992;28;20727;-49
2022/12/04 00:16:11;;;;;;;29.23;15.83;;;1.90;99.90;;;;;;5075872;28;20187;-48
2022/12/04 00:18:37;;;;;;;35.33;16.87;;;1.80;99.90;;;;;;5075987;28;20249;-49
2022/12/04 00:21:08;;;;;;;29.03;16.33;;;1.90;99.90;;;;;;5076160;28;20211;-49
2022/12/04 00:23:34;;;;;;;27.67;15.40;;;1.90;99.90;;;;;;5076273;28;20168;-49
2022/12/04 00:26:17;;;;;;;28.90;14.73;;;1.80;99.90;;;;;;5075815;28;20639;-49
2022/12/04 00:28:43;;;;;;;33.80;16.53;;;1.90;99.90;;;;;;5076105;28;20195;-48
2022/12/04 00:31:24;;;;;;;29.77;15.13;;;1.80;99.90;;;;;;5075959;28;20669;-49
2022/12/04 00:33:50;;;;;;;29.50;15.83;;;1.90;99.90;;;;;;5075884;28;20218;-49
2022/12/04 00:36:18;;;;;;;32.47;16.50;;;1.80;99.90;;;;;;5075557;28;20658;-49
2022/12/04 00:38:44;;;;;;;28.70;15.50;;;1.90;99.90;;;;;;5075710;28;20344;-50
2022/12/04 00:41:12;;;;;;;29.93;15.07;;;1.80;99.90;;;;;;5075649;28;20719;-50
2022/12/04 00:43:38;;;;;;;30.00;15.33;;;1.90;99.90;;;;;;5075539;28;20241;-52
2022/12/04 00:46:04;;;;;;;27.63;15.33;;;1.80;99.90;;;;;;5075667;28;20642;-50
2022/12/04 00:48:30;;;;;;;29.27;15.40;;;1.80;99.90;;;;;;5075315;28;20230;-49
2022/12/04 00:50:59;;;;;;;32.03;15.50;;;1.80;99.90;;;;;;5075555;28;20571;-48
2022/12/04 00:53:25;;;;;;;28.00;14.73;;;1.80;99.90;;;;;;5075736;28;20213;-49
2022/12/04 00:55:50;;;;;;;29.27;15.47;;;1.90;99.90;;;;;;5075119;28;20703;-50
2022/12/04 00:58:16;;;;;;;28.37;15.97;;;1.80;99.90;;;;;;5057524;28;20626;-50
2022/12/04 01:00:42;;;;;;;23.83;14.17;;;1.90;99.90;;;;;;5075244;28;20207;-50
2022/12/04 01:03:08;;;;;;;28.73;14.97;;;1.80;99.90;;;;;;5057458;28;20329;-49
2022/12/04 01:05:44;;;;;;;34.30;16.63;;;1.90;99.90;;;;;;5075288;28;20635;-50
2022/12/04 01:08:11;;;;;;;30.90;16.03;;;1.80;99.90;;;;;;5075549;28;20172;-48
2022/12/04 01:10:39;;;;;;;31.83;14.77;;;1.80;99.90;;;;;;5075155;28;20179;-49
2022/12/04 01:13:04;;;;;;;30.57;16.67;;;1.80;99.90;;;;;;5075484;28;20175;-49
2022/12/04 01:15:30;;;;;;;26.67;15.63;;;1.90;99.90;;;;;;5075203;28;20206;-49
2022/12/04 01:17:56;;;;;;;30.03;14.93;;;1.80;99.90;;;;;;5074849;28;20218;-50
2022/12/04 01:20:21;;;;;;;27.87;14.90;;;1.80;99.90;;;;;;5074756;28;20730;-49
2022/12/04 01:22:47;;;;;;;30.10;15.60;;;1.80;99.90;;;;;;5075137;28;20171;-50
2022/12/04 01:25:12;;;;;;;31.60;15.57;;;1.80;99.90;;;;;;5074951;28;20176;-49
2022/12/04 01:27:38;;;;;;;26.33;14.73;;;1.90;99.90;;;;;;5075240;28;20225;-49
2022/12/04 01:30:04;;;;;;;31.90;15.17;;;1.90;99.90;;;;;;5074836;28;20702;-50
2022/12/04 01:32:30;;;;;;;29.97;14.53;;;1.80;99.90;;;;;;5077260;22;20239;-47
2022/12/04 01:34:55;;;;;;;29.07;15.27;;;1.80;99.90;;;;;;5054537;28;20214;-47
2022/12/04 01:37:21;;;;;;;31.07;15.67;;;1.80;99.90;;;;;;5054521;28;20172;-48
2022/12/04 01:39:46;;;;;;;28.67;15.67;;;1.80;99.90;;;;;;5054479;28;20713;-47
2022/12/04 01:42:14;;;;;;;31.50;15.47;;;1.80;99.90;;;;;;5054015;28;20207;-46
2022/12/04 01:45:04;;;;;;;28.47;15.40;;;1.80;99.90;;;;;;5054386;28;20266;-45
2022/12/04 01:47:29;;;;;;;28.80;16.00;;;1.80;99.90;;;;;;5054177;28;20173;-46
2022/12/04 01:49:57;;;;;;;35.40;16.50;;;1.80;99.90;;;;;;5055075;28;20257;-46
2022/12/04 01:52:25;;;;;;;31.07;16.93;;;1.80;99.90;;;;;;5054505;28;20275;-46
2022/12/04 01:54:55;;;;;;;33.87;15.13;;;1.80;99.90;;;;;;5054130;28;20190;-44
2022/12/04 01:57:25;;;;;;;30.23;15.03;;;1.80;99.90;;;;;;5054290;28;20175;-47
2022/12/04 01:59:55;;;;;;;39.10;17.57;;;1.80;99.90;;;;;;5054125;28;20236;-47
2022/12/04 02:02:28;;;;;;;27.90;14.87;;;1.80;99.90;;;;;;5054187;28;20200;-47
2022/12/04 02:04:55;;;;;;;31.93;16.53;;;1.80;99.90;;;;;;5053886;28;20255;-46
2022/12/04 02:07:21;;;;;;;29.37;16.57;;;1.80;99.90;;;;;;5054171;28;20187;-46
2022/12/04 02:09:52;;;;;;;31.23;14.93;;;1.80;99.90;;;;;;5053903;28;20198;-45
2022/12/04 02:12:31;;;;;;;28.20;14.37;;;1.80;99.90;;;;;;5053150;28;20221;-46
2022/12/04 02:15:09;;;;;;;28.77;16.60;;;1.80;99.90;;;;;;5054085;28;20164;-46
2022/12/04 02:18:21;;;;;;;27.43;14.27;;;1.80;99.90;;;;;;5053664;28;20180;-47
2022/12/04 02:21:03;;;;;;;30.83;15.10;;;1.80;99.90;;;;;;5053735;28;20611;-47
2022/12/04 02:24:04;;;;;;;31.73;14.97;;;1.80;99.90;;;;;;5054011;28;20567;-46
2022/12/04 02:26:36;;;;;;;27.77;13.70;;;1.80;99.90;;;;;;5053951;28;20171;-45
2022/12/04 02:29:18;;;;;;;34.53;16.00;;;1.80;99.90;;;;;;5053403;28;20199;-47
2022/12/04 02:31:57;;;;;;;27.93;14.40;;;1.80;99.90;;;;;;5053576;28;20192;-44
2022/12/04 02:34:28;;;;;;;27.60;15.60;;;1.80;99.90;;;;;;5053858;28;20199;-46
2022/12/04 02:37:20;;;;;;;25.07;13.47;;;1.80;99.90;;;;;;5053743;28;20646;-45
2022/12/04 02:40:04;;;;;;;28.90;15.40;;;1.70;99.90;;;;;;5053814;28;20305;-47
2022/12/04 02:42:39;;;;;;;23.27;13.57;;;1.80;99.90;;;;;;5053497;28;20199;-49
2022/12/04 02:45:13;;;;;;;25.97;14.33;;;1.80;99.90;;;;;;5035646;28;20168;-46
2022/12/04 02:47:41;;;;;;;35.33;17.57;;;1.70;99.90;;;;;;5053711;28;20173;-45
2022/12/04 02:50:20;;;;;;;27.53;15.00;;;1.70;99.90;;;;;;5053624;28;20211;-46
2022/12/04 02:52:54;;;;;;;31.23;16.13;;;1.70;99.90;;;;;;5053377;28;20194;-45
2022/12/04 02:55:31;;;;;;;31.27;16.43;;;1.80;99.90;;;;;;5054616;28;20540;-46
2022/12/04 02:58:03;;;;;;;31.30;15.63;;;1.70;99.90;;;;;;5038854;28;20180;-47
2022/12/04 03:00:30;;;;;;;29.40;15.40;;;1.70;99.90;;;;;;5055708;28;20169;-47
2022/12/04 03:03:05;;;;;;;34.57;17.27;;;1.70;99.90;;;;;;5053313;28;20211;-47
2022/12/04 03:05:54;;;;;;;30.33;15.30;;;1.70;99.90;;;;;;5052984;28;20192;-47
2022/12/04 03:08:27;;;;;;;33.37;16.10;;;1.70;99.90;;;;;;5053129;28;20200;-47
2022/12/04 03:10:56;;;;;;;32.57;16.03;;;1.70;99.90;;;;;;5035206;28;20568;-46
2022/12/04 03:13:26;;;;;;;28.70;15.77;;;1.70;99.90;;;;;;5052928;28;20261;-48
2022/12/04 03:16:02;;;;;;;35.77;17.80;;;1.70;99.90;;;;;;5053043;28;20180;-49
2022/12/04 03:18:35;;;;;;;28.83;15.53;;;1.70;99.90;;;;;;5053425;28;20210;-47
2022/12/04 03:21:10;;;;;;;33.87;16.63;;;1.70;99.90;;;;;;5053035;28;20665;-48
2022/12/04 03:23:46;;;;;;;31.37;15.27;;;1.70;99.90;;;;;;5055767;28;20199;-47
2022/12/04 03:26:25;;;;;;;35.90;17.20;;;1.70;99.90;;;;;;5056856;28;20173;-47
2022/12/04 03:28:59;;;;;;;34.13;16.77;;;1.70;99.90;;;;;;5056839;28;20226;-49
2022/12/04 03:31:39;;;;;;;36.10;17.20;;;1.70;99.90;;;;;;5057003;28;20172;-46
2022/12/04 03:34:06;;;;;;;32.10;16.73;;;1.60;99.90;;;;;;5056595;28;20176;-46
2022/12/04 03:36:37;;;;;;;34.70;17.93;;;1.70;99.90;;;;;;5056783;28;20196;-46
2022/12/04 03:39:16;;;;;;;35.73;17.13;;;1.70;99.90;;;;;;5056621;28;20204;-45
2022/12/04 03:41:54;;;;;;;33.13;16.37;;;1.70;99.90;;;;;;5056784;28;20202;-46
2022/12/04 03:44:26;;;;;;;32.83;16.40;;;1.70;99.90;;;;;;5056484;28;20717;-45
2022/12/04 03:46:57;;;;;;;32.07;16.27;;;1.60;99.90;;;;;;5056713;28;20180;-47
2022/12/04 03:49:32;;;;;;;33.33;16.87;;;1.70;99.90;;;;;;5056660;28;20243;-46
2022/12/04 03:52:03;;;;;;;32.90;17.10;;;1.60;99.90;;;;;;5056367;28;20195;-44
2022/12/04 03:54:37;;;;;;;35.30;17.43;;;1.60;99.90;;;;;;5056413;28;20255;-47
2022/12/04 03:57:15;;;;;;;34.53;17.43;;;1.60;99.90;;;;;;5056388;28;20168;-46
2022/12/04 04:00:11;;;;;;;33.37;17.27;;;1.60;99.90;;;;;;5056304;28;20214;-46
2022/12/04 04:02:42;;;;;;;37.13;16.23;;;1.60;99.90;;;;;;5055442;28;20212;-46
2022/12/04 04:05:11;;;;;;;36.10;16.20;;;1.60;99.90;;;;;;5056412;28;20160;-45
2022/12/04 04:07:47;;;;;;;31.23;16.43;;;1.60;99.90;;;;;;5038224;28;20274;-46
2022/12/04 04:10:15;;;;;;;35.50;16.93;;;1.60;99.90;;;;;;5038021;28;20620;-46
2022/12/04 04:24:13;;;;;;;35.13;17.80;;;1.60;99.90;;;;;;5055810;28;20709;-46
2022/12/04 04:24:14;;;;;;;28.27;16.00;;;1.60;99.90;;;;;;5056046;28;20178;-47
2022/12/04 04:26:45;;;;;;;31.63;15.90;;;1.60;99.90;;;;;;5056113;28;20165;-47
2022/12/04 04:29:12;;;;;;;32.40;16.73;;;1.60;99.90;;;;;;5055548;28;20200;-45
2022/12/04 04:32:09;;;;;;;34.97;17.83;;;1.60;99.90;;;;;;5055495;28;20299;-46
2022/12/04 04:34:50;;;;;;;32.63;16.00;;;1.60;99.90;;;;;;5054797;28;20168;-46
2022/12/04 04:37:40;;;;;;;34.03;17.33;;;1.60;99.90;;;;;;5055536;28;20160;-47
2022/12/04 04:40:21;;;;;;;32.57;17.50;;;1.60;99.90;;;;;;5055801;28;20204;-45
2022/12/04 04:43:08;;;;;;;37.23;16.87;;;1.60;99.90;;;;;;5056087;28;20206;-45
2022/12/04 04:45:44;;;;;;;31.17;17.57;;;1.60;99.90;;;;;;5055684;28;20165;-46
2022/12/04 04:48:37;;;;;;;31.10;15.57;;;1.60;99.90;;;;;;5055326;28;20161;-46
2022/12/04 04:51:04;;;;;;;34.13;16.80;;;1.60;99.90;;;;;;5000747;28;20281;-45
2022/12/04 04:53:38;;;;;;;30.50;17.10;;;1.60;99.90;;;;;;5055212;28;20203;-46
2022/12/04 04:56:06;;;;;;;32.63;17.07;;;1.60;99.90;;;;;;5055227;28;20195;-48
2022/12/04 04:58:32;;;;;;;31.83;16.57;;;1.60;99.90;;;;;;5055331;28;20249;-46
2022/12/04 05:01:01;;;;;;;37.50;16.33;;;1.60;99.90;;;;;;5054902;28;20204;-45
2022/12/04 05:03:28;;;;;;;32.20;16.53;;;1.50;99.90;;;;;;5055228;28;20223;-46
2022/12/04 05:05:54;;;;;;;32.77;17.60;;;1.60;99.90;;;;;;5037057;28;20225;-47
2022/12/04 05:08:19;;;;;;;32.87;16.87;;;1.60;99.90;;;;;;5054885;28;20199;-47
2022/12/04 05:10:45;;;;;;;37.23;17.50;;;1.60;99.90;;;;;;5055171;28;20214;-47
2022/12/04 05:13:12;;;;;;;31.73;16.67;;;1.60;99.90;;;;;;5055008;28;20637;-47
2022/12/04 05:15:38;;;;;;;29.27;15.27;;;1.60;99.90;;;;;;5054862;28;20226;-46
2022/12/04 05:18:04;;;;;;;32.00;15.67;;;1.60;99.90;;;;;;5054698;28;20176;-47
2022/12/04 05:20:30;;;;;;;29.30;15.87;;;1.60;99.90;;;;;;5054745;28;20516;-46
2022/12/04 05:22:56;;;;;;;31.47;15.60;;;1.60;99.90;;;;;;5054502;28;20639;-48
2022/12/04 05:25:22;;;;;;;33.20;16.13;;;1.50;99.90;;;;;;5054963;28;20220;-47
2022/12/04 05:27:48;;;;;;;32.00;16.27;;;1.60;99.90;;;;;;5036694;28;20237;-46
2022/12/04 05:30:14;;;;;;;30.87;15.47;;;1.50;99.90;;;;;;5054819;28;20203;-48
2022/12/04 05:32:40;;;;;;;32.37;17.17;;;1.50;99.90;;;;;;5054380;28;20200;-49
2022/12/04 05:35:06;;;;;;;32.37;16.27;;;1.60;99.90;;;;;;5054895;28;20187;-46
2022/12/04 05:37:36;;;;;;;29.57;15.53;;;1.60;99.90;;;;;;5054874;28;20184;-45
2022/12/04 05:40:02;;;;;;;28.33;15.30;;;1.50;99.90;;;;;;5054727;28;20200;-46
2022/12/04 05:42:28;;;;;;;32.80;17.30;;;1.50;99.90;;;;;;5055839;28;20208;-46
2022/12/04 05:44:53;;;;;;;36.43;16.80;;;1.50;99.90;;;;;;5057799;28;20738;-46
2022/12/04 05:47:19;;;;;;;35.87;16.63;;;1.50;99.90;;;;;;5058803;28;20215;-47
2022/12/04 05:49:44;;;;;;;34.40;16.77;;;1.50;99.90;;;;;;5053953;28;20191;-47
2022/12/04 05:52:10;;;;;;;30.87;14.67;;;1.50;99.90;;;;;;5054029;28;20188;-47
2022/12/04 05:54:36;;;;;;;35.03;16.83;;;1.50;99.90;;;;;;5053879;28;20177;-45
2022/12/04 05:57:01;;;;;;;32.13;15.80;;;1.50;99.90;;;;;;5054136;28;20193;-46
2022/12/04 05:59:27;;;;;;;29.00;15.90;;;1.50;99.90;;;;;;5054105;28;20215;-46
2022/12/04 06:01:52;;;;;;;30.73;15.73;;;1.50;99.90;;;;;;5054082;28;20214;-44
2022/12/04 06:04:18;;;;;;;32.63;17.03;;;1.50;99.90;;;;;;5053743;28;20178;-45
2022/12/04 06:06:43;;;;;;;30.57;17.40;;;1.50;99.90;;;;;;5054079;28;20177;-47
2022/12/04 06:09:11;;;;;;;29.00;15.90;;;1.50;99.90;;;;;;5053695;28;20568;-46
2022/12/04 06:11:38;;;;;;;31.97;16.33;;;1.50;99.90;;;;;;5053703;28;20190;-47
2022/12/04 06:14:06;;;;;;;28.87;16.20;;;1.50;99.90;;;;;;5054008;28;20206;-45
2022/12/04 06:16:35;;;;;;;33.40;16.67;;;1.50;99.90;;;;;;5053781;28;20246;-46
2022/12/04 06:19:05;;;;;;;34.37;17.57;;;1.50;99.90;;;;;;5053924;28;20218;-46
2022/12/04 06:21:33;;;;;;;37.13;18.17;;;1.50;99.90;;;;;;5053141;28;20254;-47
2022/12/04 06:23:58;;;;;;;29.60;15.43;;;1.50;99.90;;;;;;5053551;28;20298;-46
2022/12/04 06:26:25;;;;;;;27.40;14.53;;;1.50;99.90;;;;;;5053986;28;20259;-46
2022/12/04 06:28:55;;;;;;;29.00;16.00;;;1.50;99.90;;;;;;5053188;28;20245;-46
2022/12/04 06:31:22;;;;;;;32.53;16.50;;;1.50;99.90;;;;;;5053439;28;20594;-46
2022/12/04 06:33:48;;;;;;;33.70;17.17;;;1.40;99.90;;;;;;5053568;28;20183;-46
2022/12/04 06:36:17;;;;;;;33.83;16.70;;;1.40;99.90;;;;;;5053329;28;20262;-46
2022/12/04 06:38:43;;;;;;;32.57;17.13;;;1.40;99.90;;;;;;5053053;28;20686;-48
2022/12/04 06:41:12;;;;;;;32.43;15.77;;;1.30;99.90;;;;;;5052869;28;20213;-46
2022/12/04 06:43:39;;;;;;;36.23;17.20;;;1.30;99.90;;;;;;5053012;28;20191;-47
2022/12/04 06:46:08;;;;;;;27.13;15.60;;;1.40;99.90;;;;;;5053415;28;20184;-46
2022/12/04 06:48:33;;;;;;;32.50;16.77;;;1.30;99.90;;;;;;5053000;28;20209;-46
2022/12/04 06:51:01;;;;;;;29.47;15.30;;;1.30;99.90;;;;;;5053548;28;20267;-45
2022/12/04 06:53:29;;;;;;;31.77;17.13;;;1.30;99.90;;;;;;5052972;28;20176;-45
2022/12/04 06:55:56;;;;;;;31.40;16.93;;;1.30;99.90;;;;;;5052930;28;20188;-47
2022/12/04 06:58:22;;;;;;;28.63;15.90;;;1.30;99.90;;;;;;5052535;28;20683;-47
2022/12/04 07:00:47;;;;;;;32.80;16.57;;;1.40;99.90;;;;;;5053352;28;20241;-48
2022/12/04 07:03:13;;;;;;;28.90;15.47;;;1.30;99.90;;;;;;5053418;28;20183;-48
2022/12/04 07:05:38;;;;;;;31.90;16.03;;;1.40;99.90;;;;;;5052953;28;20172;-46
2022/12/04 07:08:04;;;;;;;29.07;15.40;;;1.30;99.90;;;;;;5053055;28;20639;-46
2022/12/04 07:10:29;;;;;;;33.43;15.30;;;1.40;99.90;;;;;;5053063;28;20636;-46
2022/12/04 07:12:55;;;;;;;35.23;18.23;;;1.40;99.90;;;;;;5053010;28;20180;-46
2022/12/04 07:15:21;;;;;;;30.23;16.87;;;1.40;99.90;;;;;;5053562;28;20200;-46
2022/12/04 07:17:46;;;;;;;31.40;16.00;;;1.40;99.90;;;;;;5053182;28;20184;-49
2022/12/04 07:20:12;;;;;;;32.83;16.87;;;1.40;99.90;;;;;;5052842;28;20230;-46
2022/12/04 07:22:37;;;;;;;28.93;14.70;;;1.40;99.90;;;;;;5052986;28;20214;-47
2022/12/04 07:25:03;;;;;;;32.37;16.13;;;1.40;99.90;;;;;;5053129;28;20164;-49
2022/12/04 07:27:30;;;;;;;31.63;15.40;;;1.40;99.90;;;;;;5052911;28;20660;-46
2022/12/04 07:29:56;;;;;;;31.83;14.77;;;1.50;99.90;;;;;;5052982;28;20667;-47
2022/12/04 07:32:21;;;;;;;27.77;14.43;;;1.40;99.90;;;;;;5052699;28;20223;-47
2022/12/04 07:34:47;;;;;;;28.33;15.70;;;1.50;99.90;;;;;;5052982;28;20177;-46
2022/12/04 07:37:12;;;;;;;28.77;15.03;;;1.50;99.90;;;;;;5053083;28;20211;-45
2022/12/04 07:39:38;;;;;;;28.63;14.57;;;1.50;99.90;;;;;;5053017;28;20203;-46
2022/12/04 07:42:04;;;;;;;25.40;14.43;;;1.50;99.90;;;;;;5053191;28;20208;-44
2022/12/04 07:44:30;;;;;;;33.30;16.23;;;1.50;99.90;;;;;;5052735;28;20173;-45
2022/12/04 07:46:56;;;;;;;31.10;14.93;;;1.50;99.90;;;;;;5052989;28;20191;-44
2022/12/04 07:49:22;;;;;;;28.77;13.67;;;1.50;99.90;;;;;;5052633;28;20203;-45
2022/12/04 07:51:47;;;;;;;26.77;14.13;;;1.50;99.90;;;;;;5052604;28;20223;-46
2022/12/04 07:54:13;;;;;;;28.43;13.83;;;1.50;99.90;;;;;;5052660;28;20188;-45
2022/12/04 07:56:39;;;;;;;26.73;13.70;;;1.50;99.90;;;;;;5052681;28;20620;-48
2022/12/04 07:59:04;;;;;;;31.90;14.37;;;1.50;99.90;;;;;;5052416;28;20196;-45
2022/12/04 08:01:30;;;;;;;22.27;13.03;;;1.50;99.90;;;;;;5052533;28;20555;-45
2022/12/04 08:03:57;;;;;;;32.83;13.17;;;1.60;99.90;;;;;;5052662;28;20517;-46
2022/12/04 08:06:24;;;;;;;26.13;11.77;;;1.60;99.90;;;;;;5053055;28;20163;-46
2022/12/04 08:08:51;;;;;;;29.43;12.30;;;1.60;99.90;;;;;;5052426;28;20201;-47
2022/12/04 08:11:21;;;;;;;33.60;12.30;;;1.60;99.90;;;;;;5056230;28;20184;-45
2022/12/04 08:13:47;;;;;;;23.40;12.03;;;1.60;99.90;;;;;;5056156;28;20230;-44
2022/12/04 08:16:14;;;;;;;30.00;12.40;;;1.60;99.90;;;;;;5055957;28;20180;-46
2022/12/04 08:18:45;;;;;;;21.03;11.37;;;1.60;99.90;;;;;;5056066;28;20200;-47
2022/12/04 08:21:13;;;;;;;24.77;10.97;;;1.60;99.90;;;;;;5056107;28;20203;-46
2022/12/04 08:23:40;;;;;;;19.63;10.37;;;1.60;99.90;;;;;;5055857;28;20204;-45
2022/12/04 08:26:06;;;;;;;22.47;10.90;;;1.70;99.90;;;;;;5055800;28;20256;-45
2022/12/04 08:28:32;;;;;;;22.47;10.73;;;1.70;99.90;;;;;;5055557;28;20750;-44
2022/12/04 08:31:09;;;;;;;21.07;11.10;;;1.70;99.90;;;;;;5055667;28;20191;-45
2022/12/04 08:33:35;;;;;;;18.80;9.53;;;1.70;99.90;;;;;;5055834;28;20168;-45
2022/12/04 08:36:01;;;;;;;17.57;9.63;;;1.70;99.90;;;;;;5055581;28;20236;-45
2022/12/04 08:38:26;;;;;;;16.67;9.63;;;1.70;99.90;;;;;;5055529;28;20200;-46
2022/12/04 08:40:52;;;;;;;14.70;8.60;;;1.70;99.90;;;;;;5055321;28;20664;-47
2022/12/04 08:43:17;;;;;;;14.40;9.47;;;1.70;99.90;;;;;;5055659;28;20183;-46
2022/12/04 08:45:43;;;;;;;16.73;9.40;;;1.70;99.90;;;;;;5055416;28;20181;-45
2022/12/04 08:48:08;;;;;;;15.37;9.27;;;1.70;99.90;;;;;;5055299;28;20208;-45
2022/12/04 08:50:34;;;;;;;14.43;8.53;;;1.70;99.90;;;;;;5055566;28;20177;-45
2022/12/04 08:52:59;;;;;;;15.77;9.07;;;1.70;99.90;;;;;;5055582;28;20230;-48
2022/12/04 08:55:27;;;;;;;15.37;8.67;;;1.70;99.90;;;;;;5055284;28;20184;-48
2022/12/04 08:57:53;;;;;;;14.57;8.40;;;1.70;99.90;;;;;;5055084;28;20640;-46
2022/12/04 09:00:19;;;;;;;15.53;9.43;;;1.70;99.90;;;;;;5055426;28;20180;-45
2022/12/04 09:02:48;;;;;;;14.77;9.27;;;1.70;99.90;;;;;;5055303;28;20206;-47
2022/12/04 09:05:14;;;;;;;13.93;8.93;;;1.70;99.90;;;;;;5055142;28;20175;-46
2022/12/04 09:07:39;;;;;;;14.23;8.27;;;1.70;99.90;;;;;;5055346;28;20188;-48
2022/12/04 09:10:05;;;;;;;15.93;9.67;;;1.70;99.90;;;;;;5054875;28;20264;-47
2022/12/04 09:12:31;;;;;;;15.77;8.83;;;1.70;99.90;;;;;;5037101;28;20181;-47
2022/12/04 09:14:57;;;;;;;14.70;9.03;;;1.70;99.90;;;;;;5054817;28;20184;-47
2022/12/04 09:17:22;;;;;;;16.10;9.90;;;1.70;99.90;;;;;;5055226;28;20208;-47
2022/12/04 09:19:48;;;;;;;14.37;9.13;;;1.80;99.90;;;;;;5054230;28;20199;-46
2022/12/04 09:22:14;;;;;;;13.33;8.63;;;1.80;99.90;;;;;;5036790;28;20204;-47
2022/12/04 09:24:40;;;;;;;15.83;9.77;;;1.80;99.90;;;;;;5054891;28;20226;-48
2022/12/04 09:27:05;;;;;;;12.13;7.30;;;1.80;99.90;;;;;;5054667;28;20640;-46
2022/12/04 09:29:31;;;;;;;14.63;8.77;;;1.80;99.90;;;;;;5054517;28;20372;-46
2022/12/04 09:31:57;;;;;;;14.40;9.03;;;1.80;99.90;;;;;;5054380;28;20200;-46
2022/12/04 09:34:22;;;;;;;17.53;9.70;;;1.80;99.90;;;;;;5054474;28;20172;-47
2022/12/04 09:36:48;;;;;;;15.87;9.00;;;1.80;99.90;;;;;;5054528;28;20180;-48
2022/12/04 09:39:14;;;;;;;15.63;10.67;;;1.80;99.90;;;;;;5054666;28;20203;-47
2022/12/04 09:42:00;;;;;;;16.30;9.80;;;1.80;99.90;;;;;;5054316;28;20206;-46
2022/12/04 09:44:33;;;;;;;15.80;9.80;;;1.80;99.90;;;;;;5054275;28;20161;-46
2022/12/04 09:47:08;;;;;;;13.20;9.03;;;1.80;99.90;;;;;;5054226;28;20253;-45
2022/12/04 09:49:41;;;;;;;15.07;9.67;;;1.80;99.90;;;;;;5054303;28;20245;-45
2022/12/04 09:52:21;;;;;;;18.53;9.97;;;1.80;99.90;;;;;;5054242;28;20493;-45
2022/12/04 09:54:47;;;;;;;15.03;9.37;;;1.80;99.90;;;;;;5054235;28;20527;-45
2022/12/04 09:57:28;;;;;;;13.70;8.87;;;1.80;99.90;;;;;;5036194;28;20187;-46
2022/12/04 09:59:54;;;;;;;14.10;9.17;;;1.80;99.90;;;;;;5053911;28;20616;-44
2022/12/04 10:02:34;;;;;;;16.70;10.43;;;1.80;99.90;;;;;;5054008;28;20648;-47
2022/12/04 10:04:59;;;;;;;16.13;10.30;;;1.80;99.90;;;;;;5054263;28;20251;-46
2022/12/04 10:07:44;;;;;;;16.23;10.10;;;1.80;99.90;;;;;;5053906;28;20210;-47
2022/12/04 10:10:25;;;;;;;22.47;14.30;;;1.80;99.90;;;;;;5053714;28;20283;-47
2022/12/04 10:12:51;;;;;;;15.33;10.07;;;1.80;99.90;;;;;;5053951;28;20226;-45
2022/12/04 10:15:43;;;;;;;16.93;10.00;;;1.80;99.90;;;;;;5054029;28;20180;-46
2022/12/04 10:18:43;;;;;;;15.83;10.40;;;1.80;99.90;;;;;;5053626;28;20175;-46
2022/12/04 10:21:11;;;;;;;15.10;9.73;;;1.80;99.90;;;;;;5053463;28;20267;-46
2022/12/04 10:23:55;;;;;;;15.03;9.80;;;1.90;99.90;;;;;;5053697;28;20596;-45
2022/12/04 10:26:32;;;;;;;22.77;11.30;;;1.80;99.90;;;;;;5053697;28;20164;-46
2022/12/04 10:29:02;;;;;;;19.07;9.97;;;1.80;99.90;;;;;;5053532;28;20210;-46
2022/12/04 10:31:29;;;;;;;26.70;12.50;;;1.90;99.90;;;;;;5053047;28;20196;-46
2022/12/04 10:34:11;;;;;;;17.23;9.77;;;1.90;99.90;;;;;;5053362;28;20173;-46
2022/12/04 10:36:40;;;;;;;13.27;9.50;;;1.80;99.90;;;;;;5053483;28;20196;-45
2022/12/04 10:39:15;;;;;;;15.57;9.97;;;1.80;99.90;;;;;;5053155;28;20287;-48
2022/12/04 10:42:02;;;;;;;15.80;10.03;;;1.90;99.90;;;;;;5053234;28;20190;-46
2022/12/04 10:44:27;;;;;;;18.73;10.00;;;1.80;99.90;;;;;;5053406;28;20172;-47
2022/12/04 10:46:58;;;;;;;15.63;9.57;;;1.90;99.90;;;;;;5053475;28;20555;-45
2022/12/04 10:49:26;;;;;;;19.57;10.67;;;1.80;99.90;;;;;;5053413;28;20227;-45
2022/12/04 10:51:53;;;;;;;16.07;10.17;;;1.80;99.90;;;;;;5053453;28;20208;-45
2022/12/04 10:54:36;;;;;;;14.07;9.37;;;1.90;99.90;;;;;;5054008;28;20206;-47
2022/12/04 10:57:09;;;;;;;18.60;10.13;;;1.80;99.90;;;;;;5053436;28;20175;-47
2022/12/04 10:59:46;;;;;;;15.63;9.57;;;1.80;99.90;;;;;;5052941;28;20206;-46
2022/12/04 11:02:18;;;;;;;16.13;10.07;;;1.90;99.90;;;;;;5053237;28;20200;-46
2022/12/04 11:05:00;;;;;;;16.00;9.80;;;1.90;99.90;;;;;;5053411;28;20625;-46
2022/12/04 11:07:34;;;;;;;15.57;9.77;;;1.90;99.90;;;;;;5053086;28;20239;-46
2022/12/04 11:10:17;;;;;;;16.90;9.77;;;1.90;99.90;;;;;;5053001;28;20204;-47
2022/12/04 11:12:54;;;;;;;15.90;10.27;;;1.90;99.90;;;;;;5053258;28;20175;-45
2022/12/04 11:15:20;;;;;;;17.43;10.37;;;1.90;99.90;;;;;;5053769;28;20164;-46
2022/12/04 11:17:45;;;;;;;16.43;10.60;;;1.90;99.90;;;;;;5052968;28;20608;-46
2022/12/04 11:20:18;;;;;;;20.53;12.70;;;1.90;99.90;;;;;;5053124;28;20397;-47
2022/12/04 11:22:57;;;;;;;22.80;12.53;;;1.90;99.90;;;;;;5053095;28;20620;-47
2022/12/04 11:25:26;;;;;;;16.27;10.27;;;1.90;99.90;;;;;;5053050;28;20203;-47
2022/12/04 11:27:55;;;;;;;20.00;12.37;;;1.90;99.90;;;;;;5052944;28;20636;-47
2022/12/04 11:30:35;;;;;;;16.23;10.23;;;1.90;99.90;;;;;;5053134;28;20198;-46
2022/12/04 11:33:03;;;;;;;15.63;9.83;;;1.90;99.90;;;;;;5052902;28;20220;-46
2022/12/04 11:35:30;;;;;;;15.47;10.20;;;1.90;99.90;;;;;;5053146;28;20176;-47
2022/12/04 11:37:59;;;;;;;20.33;12.00;;;1.90;99.90;;;;;;5052721;28;20184;-45
2022/12/04 11:40:26;;;;;;;21.60;12.40;;;1.90;99.90;;;;;;5053845;28;20626;-47
2022/12/04 11:43:02;;;;;;;17.70;11.80;;;2.00;99.90;;;;;;5052924;28;20342;-46
2022/12/04 11:45:28;;;;;;;18.80;11.07;;;2.00;99.90;;;;;;5056827;28;20164;-46
2022/12/04 11:47:58;;;;;;;19.57;11.47;;;2.00;99.90;;;;;;5056492;28;20203;-46
2022/12/04 11:51:01;;;;;;;17.00;10.70;;;2.00;99.90;;;;;;5056555;28;20179;-47
2022/12/04 11:53:43;;;;;;;17.77;11.47;;;2.00;99.90;;;;;;5056250;28;20566;-47
2022/12/04 11:56:25;;;;;;;16.20;10.43;;;2.00;99.90;;;;;;5056672;28;20211;-47
2022/12/04 11:59:20;;;;;;;16.90;10.87;;;2.00;99.90;;;;;;5038242;28;20196;-44
2022/12/04 12:01:55;;;;;;;13.90;9.57;;;2.00;99.90;;;;;;5049359;28;20208;-47
2022/12/04 12:04:40;;;;;;;17.13;10.97;;;2.00;99.90;;;;;;5056488;28;20184;-45
2022/12/04 12:07:31;;;;;;;16.10;10.50;;;2.00;99.90;;;;;;5056228;28;20168;-46
2022/12/04 12:10:23;;;;;;;20.30;12.00;;;2.00;99.90;;;;;;5056392;28;20215;-47
2022/12/04 12:13:22;;;;;;;19.80;11.77;;;2.10;99.90;;;;;;5056420;28;20160;-44
2022/12/04 12:15:54;;;;;;;16.30;10.63;;;2.10;99.90;;;;;;5056365;28;20176;-47
2022/12/04 12:18:38;;;;;;;16.43;10.73;;;2.10;99.90;;;;;;5056215;28;20683;-46
2022/12/04 12:21:25;;;;;;;16.37;9.93;;;2.10;99.90;;;;;;5056034;28;20180;-46
2022/12/04 12:24:16;;;;;;;17.10;10.50;;;2.10;99.90;;;;;;5056075;28;20166;-46
2022/12/04 12:26:50;;;;;;;17.13;10.13;;;2.10;99.90;;;;;;5055932;28;20222;-44
2022/12/04 12:29:32;;;;;;;18.57;10.77;;;2.10;99.90;;;;;;5055580;28;20731;-45
2022/12/04 12:32:06;;;;;;;20.33;10.87;;;2.10;99.90;;;;;;5055748;28;20196;-47
2022/12/04 12:34:38;;;;;;;14.60;10.07;;;2.10;99.90;;;;;;5055960;28;20179;-45
2022/12/04 12:37:16;;;;;;;17.13;11.00;;;2.10;99.90;;;;;;5055940;28;20191;-47
2022/12/04 12:40:01;;;;;;;16.70;11.23;;;2.10;99.90;;;;;;5056091;28;20196;-47
2022/12/04 12:42:37;;;;;;;16.87;10.90;;;2.10;99.90;;;;;;5055757;28;20548;-46
2022/12/04 12:45:22;;;;;;;18.93;11.27;;;2.00;99.90;;;;;;5055489;28;20202;-46
2022/12/04 12:47:51;;;;;;;19.67;11.27;;;2.00;99.90;;;;;;5055638;28;20168;-47
2022/12/04 12:50:20;;;;;;;16.53;11.13;;;2.00;99.90;;;;;;5055314;28;20565;-42
2022/12/04 12:52:56;;;;;;;18.47;11.57;;;2.00;99.90;;;;;;5055491;28;20188;-41
2022/12/04 12:55:38;;;;;;;17.97;11.30;;;2.00;99.90;;;;;;5054901;28;20211;-41
2022/12/04 12:58:09;;;;;;;18.03;11.17;;;2.00;99.90;;;;;;5055248;28;20191;-44
2022/12/04 13:01:07;;;;;;;16.20;11.23;;;2.00;99.90;;;;;;5055807;28;20172;-41
2022/12/04 13:03:38;;;;;;;16.93;11.07;;;2.10;99.90;;;;;;5054381;28;20287;-43
2022/12/04 13:06:10;;;;;;;17.50;11.77;;;2.00;99.90;;;;;;5055697;28;20493;-42
2022/12/04 13:09:15;;;;;;;18.50;10.83;;;2.00;99.90;;;;;;5055109;28;20242;-43